Time;durP1;ratioP1;P1;durP2;ratioP2;P2;SDS_P1;SDS_P2;PMS_P1;PMS_P2;Temp;Humidity;BMP_temperature;BMP_pressure;BME280_temperature;BME280_humidity;BME280_pressure;Samples;Min_cycle;Max_cycle;Signal;HPM_P1;HPM_P2
2022/07/28 00:01:35;;;;;;;3.30;1.00;;;;;;;14.01;nan;101975.31;5032291;28;20037;-53
2022/07/28 00:04:00;;;;;;;1.83;1.20;;;;;;;13.39;nan;101872.16;5033076;28;20041;-51
2022/07/28 00:06:25;;;;;;;2.13;1.13;;;;;;;13.90;nan;101961.53;5033110;28;20041;-53
2022/07/28 00:08:51;;;;;;;2.25;1.10;;;;;;;13.59;nan;101899.81;5033334;28;20041;-51
2022/07/28 00:11:16;;;;;;;2.85;1.17;;;;;;;13.91;nan;101974.75;5033184;28;20041;-54
2022/07/28 00:13:41;;;;;;;2.08;1.13;;;;;;;13.50;nan;101904.44;5048465;28;20029;-51
2022/07/28 00:16:07;;;;;;;2.28;1.13;;;;;;;13.80;nan;101950.38;5033581;28;20171;-53
2022/07/28 00:18:32;;;;;;;2.28;1.00;;;;;;;13.68;nan;101944.53;5031695;28;20416;-54
2022/07/28 00:20:58;;;;;;;2.70;0.70;;;;;;;13.31;nan;101891.78;5032843;28;20034;-50
2022/07/28 00:23:23;;;;;;;1.52;0.90;;;;;;;13.34;nan;101902.25;5032790;28;20049;-53
2022/07/28 00:25:48;;;;;;;2.95;1.20;;;;;;;13.58;nan;101940.38;5032490;28;20108;-51
2022/07/28 00:28:14;;;;;;;8.82;1.60;;;;;;;13.21;nan;101885.00;5031261;28;20046;-51
2022/07/28 00:30:39;;;;;;;4.70;1.13;;;;;;;13.10;nan;101873.84;5031759;28;20463;-52
2022/07/28 00:33:04;;;;;;;2.63;0.95;;;;;;;13.12;nan;101885.22;5032737;28;20061;-51
2022/07/28 00:35:30;;;;;;;1.85;1.10;;;;;;;13.44;nan;101949.59;5032802;28;20034;-53
2022/07/28 00:37:55;;;;;;;3.70;1.40;;;;;;;13.20;nan;101920.25;5031537;28;20459;-53
2022/07/28 00:40:20;;;;;;;2.25;1.30;;;;;;;13.14;nan;101910.72;5032450;28;20040;-53
2022/07/28 00:42:46;;;;;;;3.38;1.20;;;;;;;13.07;nan;101905.59;5032803;28;20083;-53
2022/07/28 00:45:11;;;;;;;2.75;1.10;;;;;;;13.30;nan;101940.28;5032704;28;20033;-51
2022/07/28 00:47:36;;;;;;;4.78;1.55;;;;;;;13.26;nan;101949.19;5032481;28;20048;-52
2022/07/28 00:50:03;;;;;;;3.92;1.40;;;;;;;13.11;nan;101941.63;5031197;28;20034;-54
2022/07/28 00:52:28;;;;;;;8.55;2.03;;;;;;;13.18;nan;101948.53;5032360;28;20060;-55
2022/07/28 00:54:53;;;;;;;3.33;1.27;;;;;;;12.79;nan;101877.22;5031321;28;20030;-55
2022/07/28 00:57:20;;;;;;;3.22;1.48;;;;;;;12.77;nan;101871.13;5032824;28;20068;-54
2022/07/28 00:59:45;;;;;;;5.07;1.40;;;;;;;13.04;nan;101929.47;5032734;28;20029;-53
2022/07/28 01:02:11;;;;;;;5.93;1.25;;;;;;;12.74;nan;101872.97;5032505;28;20374;-51
2022/07/28 01:04:36;;;;;;;4.93;1.40;;;;;;;13.10;nan;101934.63;5032511;28;20045;-50
2022/07/28 01:07:04;;;;;;;3.03;1.30;;;;;;;12.69;nan;101870.44;5031221;28;20148;-53
2022/07/28 01:09:48;;;;;;;2.40;1.20;;;;;;;13.06;nan;101932.94;5031810;28;20366;-53
2022/07/28 01:12:38;;;;;;;4.05;1.70;;;;;;;12.67;nan;101866.94;5032442;28;20119;-53
2022/07/28 01:15:09;;;;;;;4.20;1.48;;;;;;;13.02;nan;101918.91;5032385;28;20079;-48
2022/07/28 01:17:40;;;;;;;3.38;1.20;;;;;;;12.67;nan;101869.59;5031064;28;20040;-53
2022/07/28 01:20:12;;;;;;;3.17;1.20;;;;;;;13.03;nan;101933.88;5031042;28;20420;-52
2022/07/28 01:22:49;;;;;;;1.92;0.90;;;;;;;13.06;nan;101925.00;5030937;28;20041;-54
2022/07/28 01:26:06;;;;;;;2.58;1.50;;;;;;;13.06;nan;101931.16;5030532;28;20050;-52
2022/07/28 01:28:53;;;;;;;5.80;1.80;;;;;;;13.07;nan;101929.41;5006263;28;20060;-52
2022/07/28 01:31:24;;;;;;;2.20;1.30;;;;;;;12.97;nan;101919.03;5047391;28;20531;-54
2022/07/28 01:33:57;;;;;;;;;;;;;;;13.05;nan;101920.66;5032481;28;20033;-51
2022/07/28 01:36:32;;;;;;;3.67;1.38;;;;;;;12.99;nan;101914.59;5030798;28;19917;-54
2022/07/28 01:38:59;;;;;;;2.88;1.60;;;;;;;13.02;nan;101913.63;5030962;28;20033;-54
2022/07/28 01:41:27;;;;;;;3.45;1.50;;;;;;;13.03;nan;101918.03;5030519;28;20026;-56
2022/07/28 01:43:56;;;;;;;3.28;1.52;;;;;;;13.03;nan;101910.09;5030665;28;20025;-54
2022/07/28 01:46:21;;;;;;;2.13;1.17;;;;;;;12.65;nan;101842.38;5030490;28;20108;-54
2022/07/28 01:48:48;;;;;;;4.75;1.50;;;;;;;13.02;nan;101910.16;5031956;28;20128;-51
2022/07/28 01:51:14;;;;;;;3.45;1.50;;;;;;;12.97;nan;101897.03;5030877;28;20033;-54
2022/07/28 01:53:40;;;;;;;3.90;1.40;;;;;;;12.61;nan;101840.69;5030648;28;20041;-50
2022/07/28 01:56:06;;;;;;;2.63;1.50;;;;;;;12.94;nan;101884.78;5031775;28;20481;-51
2022/07/28 01:58:33;;;;;;;3.13;1.20;;;;;;;12.63;nan;101833.63;5013961;28;20116;-53
2022/07/28 02:00:59;;;;;;;2.15;1.35;;;;;;;13.03;nan;101901.28;5030637;28;20033;-52
2022/07/28 02:03:28;;;;;;;3.20;1.55;;;;;;;12.87;nan;101864.69;5030525;28;20139;-53
2022/07/28 02:05:54;;;;;;;3.88;1.33;;;;;;;13.06;nan;101901.22;5030545;28;20029;-53
2022/07/28 02:08:21;;;;;;;2.92;1.30;;;;;;;13.04;nan;101892.47;5031814;28;20041;-48
2022/07/28 02:11:38;;;;;;;2.60;1.33;;;;;;;12.88;nan;101871.72;5030976;28;20033;-53
2022/07/28 02:13:36;;;;;;;2.75;1.45;;;;;;;12.97;nan;101881.19;5030681;28;20057;-51
2022/07/28 02:16:03;;;;;;;3.80;1.60;;;;;;;12.66;nan;101822.09;5030849;28;20033;-54
2022/07/28 02:18:30;;;;;;;5.50;1.40;;;;;;;13.03;nan;101890.72;5030331;28;20463;-52
2022/07/28 02:20:56;;;;;;;2.90;1.33;;;;;;;13.01;nan;101884.63;5030253;28;20061;-55
2022/07/28 02:23:22;;;;;;;3.22;1.63;;;;;;;12.98;nan;101888.22;5030337;28;20030;-50
2022/07/28 02:25:49;;;;;;;3.53;1.38;;;;;;;12.96;nan;101890.00;5032456;28;20125;-49
2022/07/28 02:28:15;;;;;;;2.92;1.67;;;;;;;12.91;nan;101876.91;5033977;28;20037;-52
2022/07/28 02:30:46;;;;;;;5.10;1.70;;;;;;;12.92;nan;101880.44;5033829;28;20037;-51
2022/07/28 02:33:14;;;;;;;2.63;1.45;;;;;;;12.94;nan;101883.91;5033920;28;20064;-52
2022/07/28 02:35:54;;;;;;;5.03;1.40;;;;;;;12.72;nan;101851.00;5050609;28;20495;-53
2022/07/28 02:38:23;;;;;;;2.53;1.30;;;;;;;12.58;nan;101827.56;5033838;28;20064;-53
2022/07/28 02:40:52;;;;;;;3.10;1.80;;;;;;;12.58;nan;101835.47;5033886;28;20072;-53
2022/07/28 02:43:22;;;;;;;3.83;1.40;;;;;;;12.42;nan;101802.44;5034809;28;20057;-52
2022/07/28 02:45:51;;;;;;;3.75;1.40;;;;;;;12.81;nan;101887.78;5033422;28;20056;-49
2022/07/28 02:48:18;;;;;;;3.53;1.52;;;;;;;12.52;nan;101835.63;5033590;28;20040;-49
2022/07/28 02:50:44;;;;;;;3.47;1.90;;;;;;;12.81;nan;101893.91;5033807;28;20065;-52
2022/07/28 02:53:10;;;;;;;2.38;1.35;;;;;;;12.80;nan;101884.25;5034727;28;20492;-50
2022/07/28 02:55:37;;;;;;;1.42;1.33;;;;;;;12.46;nan;101829.66;5032912;28;20040;-48
2022/07/28 02:58:03;;;;;;;3.55;1.35;;;;;;;12.64;nan;101871.47;5033648;28;20461;-50
2022/07/28 03:00:29;;;;;;;6.93;1.73;;;;;;;12.60;nan;101869.78;5033617;28;20112;-49
2022/07/28 03:02:55;;;;;;;3.90;1.70;;;;;;;12.62;nan;101878.53;5033385;28;20132;-54
2022/07/28 03:05:21;;;;;;;2.97;1.63;;;;;;;12.61;nan;101882.94;5033298;28;20079;-49
2022/07/28 03:07:51;;;;;;;4.65;1.77;;;;;;;12.59;nan;101894.47;5034339;28;20053;-51
2022/07/28 03:10:21;;;;;;;2.63;1.50;;;;;;;12.52;nan;101879.69;5034349;28;20029;-52
2022/07/28 03:12:46;;;;;;;5.70;1.50;;;;;;;12.43;nan;101880.78;5033437;28;20034;-52
2022/07/28 03:15:12;;;;;;;8.43;2.17;;;;;;;12.35;nan;101878.28;5034448;28;20036;-49
2022/07/28 03:17:37;;;;;;;4.28;1.52;;;;;;;11.76;nan;101787.28;5034556;28;20037;-53
2022/07/28 03:20:04;;;;;;;4.97;1.80;;;;;;;12.29;nan;101881.06;5034379;28;20037;-54
2022/07/28 03:22:29;;;;;;;2.97;1.50;;;;;;;12.16;nan;101876.13;5032986;28;20391;-56
2022/07/28 03:24:55;;;;;;;4.78;1.60;;;;;;;12.19;nan;101884.84;5033821;28;20029;-53
2022/07/28 03:27:24;;;;;;;3.03;1.77;;;;;;;12.15;nan;101888.44;5032864;28;20041;-52
2022/07/28 03:30:03;;;;;;;3.60;1.65;;;;;;;12.07;nan;101873.69;5034124;28;20091;-54
2022/07/28 03:32:30;;;;;;;2.92;1.90;;;;;;;12.07;nan;101884.22;5034061;28;20033;-49
2022/07/28 03:34:56;;;;;;;5.75;2.15;;;;;;;12.01;nan;101885.25;5032570;28;20036;-53
2022/07/28 03:37:29;;;;;;;4.40;1.75;;;;;;;11.57;nan;101808.78;5048073;28;20033;-53
2022/07/28 03:39:56;;;;;;;3.10;1.80;;;;;;;10.93;nan;101712.59;5032984;28;20041;-54
2022/07/28 03:42:23;;;;;;;2.72;1.20;;;;;;;11.86;nan;101875.00;5034095;28;20477;-50
2022/07/28 03:44:49;;;;;;;5.57;2.25;;;;;;;11.77;nan;101876.06;5032532;28;20033;-49
2022/07/28 03:47:15;;;;;;;5.43;1.98;;;;;;;11.77;nan;101883.13;5033697;28;20068;-50
2022/07/28 03:49:40;;;;;;;3.97;1.80;;;;;;;11.69;nan;101870.09;5033737;28;20064;-53
2022/07/28 03:52:05;;;;;;;4.80;1.98;;;;;;;11.36;nan;101833.81;5033602;28;20097;-52
2022/07/28 03:54:31;;;;;;;4.38;1.88;;;;;;;11.68;nan;101899.09;5033751;28;20041;-51
2022/07/28 03:56:56;;;;;;;1.52;1.40;;;;;;;11.47;nan;101863.47;5032505;28;20025;-55
2022/07/28 03:59:22;;;;;;;5.13;1.92;;;;;;;11.57;nan;101888.75;5031931;28;20480;-52
2022/07/28 04:01:47;;;;;;;4.93;2.05;;;;;;;11.53;nan;101892.34;5033396;28;20057;-51
2022/07/28 04:04:13;;;;;;;5.25;2.20;;;;;;;11.52;nan;101889.75;5033404;28;20418;-53
2022/07/28 04:06:38;;;;;;;3.95;2.20;;;;;;;11.39;nan;101875.94;5033243;28;20117;-53
2022/07/28 04:09:03;;;;;;;3.08;1.63;;;;;;;11.52;nan;101890.63;5032307;28;20041;-52
2022/07/28 04:11:29;;;;;;;5.53;1.90;;;;;;;11.50;nan;101891.56;5033598;28;20039;-51
2022/07/28 04:13:55;;;;;;;3.83;1.95;;;;;;;11.51;nan;101893.28;5033293;28;20037;-56
2022/07/28 04:16:20;;;;;;;4.38;1.88;;;;;;;11.50;nan;101896.84;5032030;28;20037;-51
2022/07/28 04:18:46;;;;;;;5.55;2.30;;;;;;;11.42;nan;101891.69;5033100;28;20037;-52
2022/07/28 04:21:12;;;;;;;5.00;2.17;;;;;;;11.17;nan;101848.25;5031706;28;20377;-54
2022/07/28 04:23:37;;;;;;;5.80;2.47;;;;;;;11.12;nan;101836.94;5032898;28;20041;-52
2022/07/28 04:26:03;;;;;;;4.93;2.17;;;;;;;11.21;nan;101868.38;5031745;28;20124;-54
2022/07/28 04:28:28;;;;;;;4.40;2.22;;;;;;;10.99;nan;101814.34;5032905;28;20446;-50
2022/07/28 04:30:53;;;;;;;7.80;2.20;;;;;;;11.16;nan;101846.50;5048472;28;20369;-53
2022/07/28 04:33:19;;;;;;;5.20;1.80;;;;;;;11.48;nan;101902.13;5048083;28;20168;-54
2022/07/28 04:35:45;;;;;;;4.72;1.85;;;;;;;11.49;nan;101898.59;5032738;28;20040;-50
2022/07/28 04:38:13;;;;;;;4.97;2.22;;;;;;;11.41;nan;101881.19;5032646;28;20042;-51
2022/07/28 04:40:39;;;;;;;6.75;1.90;;;;;;;11.23;nan;101832.34;5031807;28;20548;-49
2022/07/28 04:43:04;;;;;;;4.32;2.17;;;;;;;11.26;nan;101830.50;5032763;28;20120;-53
2022/07/28 04:45:30;;;;;;;4.38;1.90;;;;;;;11.35;nan;101833.84;5032637;28;20042;-55
2022/07/28 04:47:55;;;;;;;3.47;2.03;;;;;;;11.77;nan;101886.63;5032077;28;20177;-51
2022/07/28 04:50:21;;;;;;;4.72;2.30;;;;;;;11.81;nan;101885.66;5032478;28;20506;-52
2022/07/28 04:52:49;;;;;;;3.60;2.20;;;;;;;11.57;nan;101825.47;5032580;28;20037;-53
2022/07/28 04:55:15;;;;;;;4.93;2.22;;;;;;;11.71;nan;101843.66;5032685;28;20494;-55
2022/07/28 04:57:42;;;;;;;4.55;2.03;;;;;;;11.94;nan;101870.44;5031215;28;20047;-52
2022/07/28 05:00:11;;;;;;;3.67;2.60;;;;;;;11.83;nan;101838.13;5031288;28;20037;-53
2022/07/28 05:02:37;;;;;;;3.90;2.10;;;;;;;11.91;nan;101835.34;5032383;28;20540;-55
2022/07/28 05:05:02;;;;;;;3.38;2.10;;;;;;;12.11;nan;101867.44;5031049;28;20038;-55
2022/07/28 05:07:28;;;;;;;2.30;2.10;;;;;;;12.29;nan;101896.91;5031202;28;20045;-53
2022/07/28 05:09:53;;;;;;;3.80;1.90;;;;;;;12.35;nan;101898.53;5032506;28;20436;-53
2022/07/28 05:12:18;;;;;;;4.25;2.10;;;;;;;12.33;nan;101889.78;5032239;28;20435;-54
2022/07/28 05:14:43;;;;;;;3.78;1.90;;;;;;;12.35;nan;101902.06;5031115;28;20037;-49
2022/07/28 05:17:09;;;;;;;4.70;1.88;;;;;;;12.40;nan;101899.31;5031964;28;20116;-51
2022/07/28 05:19:34;;;;;;;5.05;2.40;;;;;;;12.13;nan;101845.38;5032122;28;20045;-54
2022/07/28 05:21:59;;;;;;;5.28;3.17;;;;;;;12.53;nan;101900.75;5032346;28;20091;-52
2022/07/28 05:24:25;;;;;;;3.42;2.05;;;;;;;12.59;nan;101916.47;5030970;28;20596;-56
2022/07/28 05:26:50;;;;;;;5.43;2.00;;;;;;;12.62;nan;101897.91;5031775;28;20111;-54
2022/07/28 05:29:15;;;;;;;5.28;2.28;;;;;;;12.31;nan;101842.31;5032115;28;20036;-53
2022/07/28 05:31:40;;;;;;;7.43;2.35;;;;;;;12.70;nan;101905.63;5032232;28;20033;-54
2022/07/28 05:34:06;;;;;;;2.90;1.88;;;;;;;12.75;nan;101909.94;5032200;28;20033;-53
2022/07/28 05:36:31;;;;;;;5.22;2.00;;;;;;;12.70;nan;101903.00;5032022;28;20462;-52
2022/07/28 05:38:56;;;;;;;4.95;2.28;;;;;;;12.84;nan;101912.31;5032136;28;20033;-53
2022/07/28 05:41:22;;;;;;;6.05;2.00;;;;;;;12.93;nan;101908.56;5030727;28;20025;-55
2022/07/28 05:43:47;;;;;;;3.80;1.73;;;;;;;12.73;nan;101872.09;5032113;28;20459;-51
2022/07/28 05:46:12;;;;;;;3.97;2.33;;;;;;;13.04;nan;101909.19;5031863;28;20037;-53
2022/07/28 05:48:38;;;;;;;2.85;1.50;;;;;;;13.10;nan;101902.91;5031738;28;20037;-57
2022/07/28 05:51:03;;;;;;;5.82;1.88;;;;;;;13.18;nan;101896.53;5032103;28;20060;-49
2022/07/28 05:53:28;;;;;;;4.78;2.15;;;;;;;13.33;nan;101919.03;5030669;28;20033;-52
2022/07/28 05:55:53;;;;;;;3.40;1.80;;;;;;;13.11;nan;101851.75;5031872;28;20389;-56
2022/07/28 05:58:22;;;;;;;4.20;1.58;;;;;;;13.35;nan;101893.41;5031884;28;20026;-54
2022/07/28 06:00:48;;;;;;;3.97;1.80;;;;;;;13.53;nan;101916.72;5049201;28;20378;-51
2022/07/28 06:03:13;;;;;;;5.70;1.70;;;;;;;13.52;nan;101922.91;5035413;28;20068;-53
2022/07/28 06:05:39;;;;;;;7.53;2.15;;;;;;;13.58;nan;101930.69;5035627;28;20487;-48
2022/07/28 06:08:04;;;;;;;9.95;3.10;;;;;;;13.29;nan;101864.50;5035539;28;20034;-54
2022/07/28 06:13:14;;;;;;;5.25;2.00;;;;;;;13.79;nan;101921.28;5035350;28;20046;-49
2022/07/28 06:15:40;;;;;;;5.32;1.63;;;;;;;13.87;nan;101919.28;5034131;28;20037;-51
2022/07/28 06:18:05;;;;;;;5.50;1.60;;;;;;;13.95;nan;101927.88;5034151;28;20037;-52
2022/07/28 06:20:31;;;;;;;5.75;1.63;;;;;;;13.98;nan;101918.06;5034171;28;20045;-51
2022/07/28 06:22:56;;;;;;;3.13;1.55;;;;;;;13.79;nan;101876.28;5035456;28;20124;-52
2022/07/28 06:25:30;;;;;;;2.80;1.70;;;;;;;14.10;nan;101919.47;5035288;28;20488;-54
2022/07/28 06:27:58;;;;;;;4.85;1.90;;;;;;;14.16;nan;101927.22;5017435;28;20488;-51
2022/07/28 06:30:24;;;;;;;4.00;1.45;;;;;;;14.24;nan;101933.19;5034825;28;20083;-51
2022/07/28 06:32:50;;;;;;;4.70;1.52;;;;;;;14.32;nan;101940.88;5033342;28;20029;-52
2022/07/28 06:35:16;;;;;;;3.70;1.88;;;;;;;14.10;nan;101885.06;5034728;28;20075;-53
2022/07/28 06:37:42;;;;;;;3.28;1.55;;;;;;;14.43;nan;101937.03;5033860;28;20543;-54
2022/07/28 06:40:10;;;;;;;5.97;1.80;;;;;;;14.51;nan;101936.78;5034819;28;20496;-52
2022/07/28 06:42:36;;;;;;;6.75;1.35;;;;;;;14.61;nan;101933.81;5034836;28;20040;-52
2022/07/28 06:45:01;;;;;;;8.02;2.63;;;;;;;14.62;nan;101929.38;5050002;28;20037;-51
2022/07/28 06:47:27;;;;;;;4.65;1.73;;;;;;;14.66;nan;101925.69;5034605;28;20037;-54
2022/07/28 06:49:52;;;;;;;3.05;1.48;;;;;;;14.64;nan;101925.78;5034836;28;20033;-54
2022/07/28 06:52:19;;;;;;;2.60;1.30;;;;;;;14.64;nan;101925.78;5034542;28;20041;-55
2022/07/28 06:54:45;;;;;;;5.38;1.58;;;;;;;14.49;nan;101877.69;5033534;28;20036;-52
2022/07/28 06:57:12;;;;;;;2.88;1.30;;;;;;;14.90;nan;101924.91;5034538;28;20356;-51
2022/07/28 06:59:38;;;;;;;3.85;1.40;;;;;;;14.71;nan;101889.31;5034481;28;20038;-54
2022/07/28 07:02:03;;;;;;;4.35;1.38;;;;;;;15.15;nan;101925.81;5034499;28;20436;-51
2022/07/28 07:04:28;;;;;;;3.15;1.48;;;;;;;15.41;nan;101924.91;5033282;28;20042;-52
2022/07/28 07:06:54;;;;;;;3.65;1.20;;;;;;;15.31;nan;101883.72;5033335;28;20069;-55
2022/07/28 07:09:19;;;;;;;5.82;1.75;;;;;;;15.51;nan;101889.22;5034506;28;20044;-54
2022/07/28 07:11:44;;;;;;;3.05;1.40;;;;;;;15.99;nan;101944.97;5049447;28;20030;-53
2022/07/28 07:14:10;;;;;;;2.88;1.10;;;;;;;15.88;nan;101893.19;5033082;28;20087;-52
2022/07/28 07:16:35;;;;;;;4.93;1.58;;;;;;;16.26;nan;101945.69;5034325;28;20041;-52
2022/07/28 07:19:01;;;;;;;8.18;1.92;;;;;;;16.54;nan;101937.56;5034349;28;20064;-53
2022/07/28 07:21:26;;;;;;;2.40;1.52;;;;;;;16.45;nan;101898.00;5034219;28;20030;-56
2022/07/28 07:23:51;;;;;;;3.15;1.30;;;;;;;16.82;nan;101927.53;5033448;28;20064;-51
2022/07/28 07:26:17;;;;;;;2.85;1.48;;;;;;;16.93;nan;101946.56;5032837;28;20058;-56
2022/07/28 07:28:42;;;;;;;2.55;1.10;;;;;;;16.85;nan;101949.53;5033371;28;20150;-54
2022/07/28 07:31:07;;;;;;;3.08;1.33;;;;;;;16.87;nan;101925.53;5031983;28;20443;-55
2022/07/28 07:33:33;;;;;;;3.35;1.17;;;;;;;17.11;nan;101915.66;5032929;28;20374;-53
2022/07/28 07:35:58;;;;;;;4.22;1.48;;;;;;;17.27;nan;101946.91;5033138;28;20033;-54
2022/07/28 07:38:23;;;;;;;2.58;1.33;;;;;;;17.25;nan;101898.19;5032007;28;20041;-57
2022/07/28 07:40:50;;;;;;;2.83;1.23;;;;;;;17.85;nan;101942.59;5033034;28;20037;-55
2022/07/28 07:43:16;;;;;;;3.70;1.20;;;;;;;18.33;nan;101939.44;5032748;28;20041;-53
2022/07/28 07:45:42;;;;;;;4.57;1.20;;;;;;;18.32;nan;101889.75;5032781;28;20044;-54
2022/07/28 07:48:07;;;;;;;3.88;1.20;;;;;;;19.25;nan;101954.53;5032442;28;20049;-55
2022/07/28 07:50:34;;;;;;;2.30;1.25;;;;;;;19.63;nan;101962.31;5032636;28;20115;-54
2022/07/28 07:52:59;;;;;;;3.60;1.05;;;;;;;19.84;nan;101957.66;5032473;28;20045;-58
2022/07/28 07:55:25;;;;;;;1.75;1.00;;;;;;;19.72;nan;101904.88;5032418;28;20112;-53
2022/07/28 07:57:51;;;;;;;2.97;0.90;;;;;;;20.45;nan;101949.88;5032357;28;20040;-55
2022/07/28 08:00:16;;;;;;;2.47;1.00;;;;;;;20.61;nan;101929.31;5032475;28;20034;-57
2022/07/28 08:02:42;;;;;;;4.53;0.95;;;;;;;20.94;nan;101982.72;5031007;28;20088;-56
2022/07/28 08:05:08;;;;;;;2.33;0.90;;;;;;;20.58;nan;101964.25;5032480;28;20044;-55
2022/07/28 08:07:34;;;;;;;5.43;1.13;;;;;;;20.86;nan;101971.59;5032281;28;20088;-53
2022/07/28 08:10:00;;;;;;;1.90;1.02;;;;;;;21.09;nan;101927.47;5032165;28;20420;-57
2022/07/28 08:12:25;;;;;;;5.68;1.15;;;;;;;21.19;nan;101963.47;5047118;28;20042;-57
2022/07/28 08:14:50;;;;;;;1.98;1.00;;;;;;;21.19;nan;101977.69;5032101;28;20485;-55
2022/07/28 08:17:16;;;;;;;2.95;0.82;;;;;;;21.06;nan;101973.13;5032102;28;20488;-54
2022/07/28 08:19:41;;;;;;;3.53;1.08;;;;;;;21.44;nan;101970.91;5032241;28;20477;-56
2022/07/28 08:22:06;;;;;;;2.60;1.13;;;;;;;21.70;nan;101965.69;5031597;28;20050;-57
2022/07/28 08:24:32;;;;;;;3.42;1.38;;;;;;;21.56;nan;101921.94;5031440;28;20094;-56
2022/07/28 08:26:57;;;;;;;2.15;1.00;;;;;;;22.16;nan;101976.28;5031500;28;20407;-54
2022/07/28 08:29:22;;;;;;;3.95;1.40;;;;;;;22.16;nan;101934.22;5032061;28;20030;-52
2022/07/28 08:31:48;;;;;;;3.00;1.02;;;;;;;22.24;nan;101972.16;5031810;28;20029;-57
2022/07/28 08:34:13;;;;;;;3.20;1.08;;;;;;;22.20;nan;101973.31;5031661;28;20126;-58
2022/07/28 08:36:38;;;;;;;3.38;1.08;;;;;;;22.23;nan;101975.81;5030310;28;20041;-58
2022/07/28 08:39:04;;;;;;;2.10;0.90;;;;;;;22.43;nan;101979.91;5031636;28;20040;-54
2022/07/28 08:42:06;;;;;;;2.60;0.90;;;;;;;22.03;nan;101968.16;5031895;28;20040;-56
2022/07/28 08:44:47;;;;;;;2.13;0.90;;;;;;;22.51;nan;101965.97;5031641;28;20037;-55
2022/07/28 08:47:14;;;;;;;2.13;1.05;;;;;;;22.73;nan;101971.72;5031414;28;20366;-56
2022/07/28 08:49:44;;;;;;;5.05;0.73;;;;;;;22.83;nan;101973.69;5030242;28;20037;-54
2022/07/28 08:52:11;;;;;;;2.35;0.90;;;;;;;23.12;nan;101965.53;5031352;28;20438;-55
2022/07/28 08:54:43;;;;;;;3.30;1.00;;;;;;;22.73;nan;101918.91;5030031;28;20397;-56
2022/07/28 08:57:29;;;;;;;2.58;0.98;;;;;;;22.42;nan;101965.63;5030948;28;20528;-54
2022/07/28 08:59:55;;;;;;;4.18;1.15;;;;;;;22.37;nan;101959.69;5031369;28;20059;-56
2022/07/28 09:02:21;;;;;;;3.97;1.50;;;;;;;22.32;nan;101952.91;5030073;28;20030;-57
2022/07/28 09:04:47;;;;;;;2.38;0.68;;;;;;;21.71;nan;101929.03;5030085;28;20480;-55
2022/07/28 09:07:13;;;;;;;2.15;0.88;;;;;;;21.83;nan;101902.31;5029655;28;20036;-56
2022/07/28 09:09:38;;;;;;;2.22;1.08;;;;;;;22.37;nan;101970.44;5031172;28;20084;-56
2022/07/28 09:12:04;;;;;;;3.10;1.10;;;;;;;22.72;nan;101954.75;5031326;28;20602;-54
2022/07/28 09:14:31;;;;;;;2.53;0.80;;;;;;;22.65;nan;101971.38;5031216;28;20048;-58
2022/07/28 09:17:00;;;;;;;2.05;0.70;;;;;;;22.78;nan;101973.16;5046272;28;20124;-56
2022/07/28 09:19:26;;;;;;;1.98;0.90;;;;;;;22.30;nan;101938.72;5029635;28;20036;-57
2022/07/28 09:21:51;;;;;;;1.30;0.90;;;;;;;23.10;nan;101972.84;5030799;28;20033;-55
2022/07/28 09:24:38;;;;;;;2.83;0.93;;;;;;;23.23;nan;101925.41;5029649;28;20037;-57
2022/07/28 09:27:06;;;;;;;3.10;1.00;;;;;;;23.89;nan;101961.06;5030921;28;20048;-55
2022/07/28 09:29:32;;;;;;;2.30;0.90;;;;;;;23.92;nan;101947.41;5030836;28;20022;-55
2022/07/28 09:31:58;;;;;;;2.47;0.88;;;;;;;23.77;nan;101923.41;5029743;28;20036;-56
2022/07/28 09:34:23;;;;;;;2.17;1.15;;;;;;;23.56;nan;101958.03;5029930;28;20038;-57
2022/07/28 09:36:48;;;;;;;3.30;1.42;;;;;;;23.43;nan;101971.47;5034988;28;20040;-55
2022/07/28 09:39:29;;;;;;;2.85;1.92;;;;;;;22.79;nan;101961.47;5034973;28;20048;-54
2022/07/28 09:41:55;;;;;;;3.15;1.35;;;;;;;22.30;nan;101960.16;5034964;28;20029;-56
2022/07/28 09:44:21;;;;;;;3.13;0.95;;;;;;;21.38;nan;101942.66;5034973;28;20044;-54
2022/07/28 09:46:47;;;;;;;1.92;1.00;;;;;;;21.11;nan;101953.19;5033753;28;20032;-57
2022/07/28 09:49:12;;;;;;;2.80;1.35;;;;;;;21.22;nan;101947.19;5034900;28;20041;-55
2022/07/28 09:51:38;;;;;;;2.42;0.80;;;;;;;21.32;nan;101951.06;5034799;28;20447;-57
2022/07/28 09:54:08;;;;;;;2.45;0.75;;;;;;;21.99;nan;101958.56;5034684;28;20357;-54
2022/07/28 09:56:34;;;;;;;2.85;0.90;;;;;;;22.11;nan;101911.34;5034369;28;20037;-55
2022/07/28 09:58:59;;;;;;;4.25;1.20;;;;;;;22.46;nan;101960.91;5033376;28;20365;-54
2022/07/28 10:01:25;;;;;;;3.90;0.82;;;;;;;22.51;nan;101945.38;5033221;28;20041;-55
2022/07/28 10:03:54;;;;;;;2.35;0.77;;;;;;;22.40;nan;101951.44;5034447;28;20099;-54
2022/07/28 10:06:28;;;;;;;1.17;0.80;;;;;;;21.74;nan;101894.88;5034616;28;20040;-54
2022/07/28 10:08:56;;;;;;;1.05;0.65;;;;;;;22.20;nan;101935.78;5034434;28;20037;-53
2022/07/28 10:11:25;;;;;;;0.95;0.60;;;;;;;22.33;nan;101893.78;5033115;28;20030;-53
2022/07/28 10:14:03;;;;;;;2.67;0.98;;;;;;;22.97;nan;101933.38;5033613;28;20377;-58
2022/07/28 10:16:33;;;;;;;1.60;0.73;;;;;;;23.05;nan;101923.94;5033281;28;20256;-56
2022/07/28 10:19:00;;;;;;;1.50;0.80;;;;;;;23.49;nan;101877.00;5033989;28;20053;-56
2022/07/28 10:21:27;;;;;;;1.65;0.77;;;;;;;23.39;nan;101880.41;5034085;28;20046;-53
2022/07/28 10:23:55;;;;;;;1.30;0.80;;;;;;;24.01;nan;101927.06;5032797;28;20033;-60
2022/07/28 10:26:37;;;;;;;4.75;1.38;;;;;;;24.10;nan;101923.75;5033773;28;20054;-55
2022/07/28 10:29:07;;;;;;;3.05;1.10;;;;;;;25.03;nan;101915.03;5034096;28;20037;-57
2022/07/28 10:31:52;;;;;;;2.60;1.00;;;;;;;24.88;nan;101932.34;5049562;28;20037;-55
2022/07/28 10:34:37;;;;;;;1.27;0.90;;;;;;;24.59;nan;101921.03;5016321;28;20047;-53
2022/07/28 10:37:03;;;;;;;1.15;0.60;;;;;;;24.83;nan;101902.22;5032606;28;20030;-56
2022/07/28 10:40:03;;;;;;;1.73;0.55;;;;;;;25.61;nan;101915.00;5033739;28;20461;-56
2022/07/28 10:42:29;;;;;;;1.77;0.63;;;;;;;24.71;nan;101914.75;5026575;28;20186;-52
2022/07/28 10:44:54;;;;;;;2.72;1.00;;;;;;;24.63;nan;101874.91;5031545;28;20065;-55
2022/07/28 10:47:20;;;;;;;2.38;0.68;;;;;;;24.99;nan;101881.22;5031254;28;20103;-56
2022/07/28 10:49:47;;;;;;;3.83;0.90;;;;;;;25.24;nan;101907.16;5015073;28;20026;-57
2022/07/28 10:52:16;;;;;;;2.63;0.85;;;;;;;25.17;nan;101887.91;5048605;28;20500;-56
2022/07/28 10:54:47;;;;;;;2.78;0.77;;;;;;;24.66;nan;101899.91;5033616;28;20041;-54
2022/07/28 10:57:14;;;;;;;1.33;0.77;;;;;;;24.82;nan;101863.66;5033471;28;20025;-53
2022/07/28 11:00:01;;;;;;;2.10;0.80;;;;;;;25.32;nan;101913.69;5032160;28;20037;-55
2022/07/28 11:02:51;;;;;;;2.08;0.90;;;;;;;25.90;nan;101901.91;5050105;28;20589;-54
2022/07/28 11:05:31;;;;;;;3.15;0.80;;;;;;;25.70;nan;101905.31;5033116;28;20038;-53
2022/07/28 11:08:20;;;;;;;2.25;0.80;;;;;;;25.88;nan;101859.84;5032790;28;20571;-52
2022/07/28 11:10:50;;;;;;;1.40;1.10;;;;;;;26.12;nan;101904.56;5032836;28;20064;-56
2022/07/28 11:13:29;;;;;;;3.53;0.73;;;;;;;25.37;nan;101900.69;5031611;28;20033;-53
2022/07/28 11:16:13;;;;;;;1.88;0.90;;;;;;;25.66;nan;101902.00;5032582;28;20287;-54
2022/07/28 11:19:08;;;;;;;1.42;0.82;;;;;;;25.88;nan;101905.69;5033058;28;20507;-55
2022/07/28 11:21:34;;;;;;;2.00;0.70;;;;;;;26.08;nan;101849.16;5032380;28;20040;-55
2022/07/28 11:23:59;;;;;;;1.00;0.88;;;;;;;25.83;nan;101891.72;5032546;28;20043;-54
2022/07/28 11:26:26;;;;;;;1.13;0.57;;;;;;;25.81;nan;101889.13;5032470;28;20057;-53
2022/07/28 11:29:04;;;;;;;1.15;0.98;;;;;;;26.53;nan;101885.03;5032585;28;20083;-57
2022/07/28 11:31:47;;;;;;;2.28;0.70;;;;;;;26.98;nan;101883.06;5032410;28;20112;-54
2022/07/28 11:34:23;;;;;;;2.85;1.00;;;;;;;27.21;nan;101829.72;5032302;28;20511;-55
2022/07/28 11:37:01;;;;;;;1.73;0.80;;;;;;;27.66;nan;101887.09;5031006;28;20038;-54
2022/07/28 11:39:28;;;;;;;4.20;0.93;;;;;;;27.26;nan;101903.19;5032394;28;20025;-57
2022/07/28 11:41:54;;;;;;;1.48;0.70;;;;;;;27.30;nan;101839.75;5032348;28;20436;-56
2022/07/28 11:44:30;;;;;;;1.80;0.80;;;;;;;27.65;nan;101877.25;5032070;28;20043;-53
2022/07/28 11:47:15;;;;;;;2.20;0.80;;;;;;;27.60;nan;101891.19;5030675;28;20464;-56
2022/07/28 11:49:41;;;;;;;2.05;1.17;;;;;;;27.44;nan;101888.09;5031893;28;20061;-57